createdAt,value
2023-03-07T00:00:17.786Z,19.15
2023-03-07T00:03:05.720Z,20.77
2023-03-07T00:05:33.387Z,23.75
2023-03-07T00:08:00.603Z,22.33
2023-03-07T00:10:28.055Z,20.75
2023-03-07T00:12:55.172Z,19.42
2023-03-07T00:15:22.874Z,20.27
2023-03-07T00:17:50.506Z,20.15
2023-03-07T00:20:17.896Z,20.75
2023-03-07T00:22:46.938Z,18.55
2023-03-07T00:25:17.697Z,19.35
2023-03-07T00:27:46.548Z,20.65
2023-03-07T00:30:13.758Z,19.77
2023-03-07T00:32:41.420Z,17.48
2023-03-07T00:35:08.800Z,18.48
2023-03-07T00:37:35.986Z,19.08
2023-03-07T00:40:04.045Z,19.98
2023-03-07T00:42:31.401Z,20.67
2023-03-07T00:44:58.227Z,19.98
2023-03-07T00:47:25.748Z,19.90
2023-03-07T00:49:53.561Z,18.85
2023-03-07T00:52:21.122Z,19.15
2023-03-07T00:54:48.275Z,18.75
2023-03-07T00:57:15.760Z,18.58
2023-03-07T00:59:42.858Z,20.65
2023-03-07T01:02:10.634Z,18.85
2023-03-07T01:04:37.869Z,20.15
2023-03-07T01:07:05.270Z,19.38
2023-03-07T01:09:32.829Z,17.67
2023-03-07T01:12:00.464Z,18.70
2023-03-07T01:14:27.553Z,17.75
2023-03-07T01:16:55.120Z,17.60
2023-03-07T01:19:22.974Z,20.25
2023-03-07T01:21:51.470Z,21.35
2023-03-07T01:24:18.499Z,20.30
2023-03-07T01:26:46.209Z,17.23
2023-03-07T01:29:13.421Z,17.85
2023-03-07T01:31:41.108Z,16.83
2023-03-07T01:34:08.625Z,14.93
2023-03-07T01:36:37.956Z,16.65
2023-03-07T01:39:14.302Z,17.67
2023-03-07T01:41:49.585Z,16.90
2023-03-07T01:44:18.406Z,15.35
2023-03-07T01:46:49.081Z,15.35
2023-03-07T01:49:22.203Z,15.43
2023-03-07T01:52:08.381Z,15.93
2023-03-07T01:54:41.564Z,15.80
2023-03-07T01:57:09.568Z,15.15
2023-03-07T01:59:43.378Z,15.05
2023-03-07T02:02:14.322Z,14.95
2023-03-07T02:04:47.319Z,14.85
2023-03-07T02:07:16.492Z,15.55
2023-03-07T02:09:48.238Z,15.80
2023-03-07T02:12:15.831Z,15.75
2023-03-07T02:14:45.765Z,14.15
2023-03-07T02:17:13.384Z,15.67
2023-03-07T02:20:22.269Z,15.48
2023-03-07T02:22:50.411Z,14.18
2023-03-07T02:25:30.005Z,14.10
2023-03-07T02:27:59.166Z,15.23
2023-03-07T02:30:26.743Z,15.80
2023-03-07T02:32:55.007Z,15.75
2023-03-07T02:35:25.581Z,15.38
2023-03-07T02:38:03.260Z,15.95
2023-03-07T02:40:32.752Z,16.33
2023-03-07T02:43:09.739Z,15.93
2023-03-07T02:45:39.924Z,16.65
2023-03-07T02:48:07.134Z,17.38
2023-03-07T02:50:35.445Z,16.75
2023-03-07T02:53:02.703Z,17.98
2023-03-07T02:55:30.348Z,18.55
2023-03-07T02:58:02.463Z,19.67
2023-03-07T03:00:30.226Z,20.67
2023-03-07T03:02:57.389Z,21.95
2023-03-07T03:05:24.438Z,23.73
2023-03-07T03:07:53.154Z,24.02
2023-03-07T03:10:20.097Z,24.23
2023-03-07T03:12:48.073Z,27.63
2023-03-07T03:15:16.242Z,25.73
2023-03-07T03:17:44.423Z,26.33
2023-03-07T03:20:12.863Z,27.40
2023-03-07T03:22:41.394Z,25.05
2023-03-07T03:25:11.917Z,27.60
2023-03-07T03:27:41.985Z,29.48
2023-03-07T03:30:12.785Z,31.10
2023-03-07T03:32:41.476Z,28.27
2023-03-07T03:35:11.290Z,29.30
2023-03-07T03:37:39.533Z,29.80
2023-03-07T03:40:14.363Z,29.05
2023-03-07T03:42:44.561Z,27.65
2023-03-07T03:45:17.505Z,27.63
2023-03-07T03:50:12.585Z,27.50
2023-03-07T03:52:41.159Z,27.85
2023-03-07T03:55:09.383Z,27.85
2023-03-07T03:57:36.841Z,29.55
2023-03-07T04:00:05.815Z,28.50
2023-03-07T04:02:39.797Z,27.02
2023-03-07T04:05:11.566Z,26.90
2023-03-07T04:07:39.313Z,30.67
2023-03-07T04:10:06.747Z,29.13
2023-03-07T04:12:34.219Z,28.23
2023-03-07T04:15:01.438Z,27.33
2023-03-07T04:17:28.699Z,27.52
2023-03-07T04:19:55.878Z,28.35
2023-03-07T04:22:23.830Z,27.90
2023-03-07T04:24:50.676Z,27.55
2023-03-07T04:27:18.336Z,29.58
2023-03-07T04:29:45.552Z,26.52
2023-03-07T04:32:17.944Z,27.05
2023-03-07T04:34:45.866Z,26.10
2023-03-07T04:37:13.289Z,25.95
2023-03-07T04:39:40.424Z,26.23
2023-03-07T04:42:10.073Z,25.48
2023-03-07T04:44:37.659Z,26.15
2023-03-07T04:47:05.096Z,24.85
2023-03-07T04:49:34.744Z,26.90
2023-03-07T04:52:04.614Z,25.75
2023-03-07T04:54:32.389Z,25.25
2023-03-07T04:57:01.665Z,22.90
2023-03-07T04:59:28.845Z,25.80
2023-03-07T05:01:56.479Z,23.63
2023-03-07T05:04:23.741Z,25.40
2023-03-07T05:06:51.659Z,24.42
2023-03-07T05:09:19.010Z,24.50
2023-03-07T05:11:47.117Z,22.45
2023-03-07T05:14:14.062Z,24.33
2023-03-07T05:16:42.440Z,24.77
2023-03-07T05:19:10.346Z,25.52
2023-03-07T05:21:39.950Z,22.52
2023-03-07T05:24:07.922Z,23.17
2023-03-07T05:26:36.428Z,24.05
2023-03-07T05:29:04.182Z,24.73
2023-03-07T05:31:31.434Z,22.15
2023-03-07T05:33:59.035Z,23.25
2023-03-07T05:36:26.294Z,22.67
2023-03-07T05:38:56.318Z,23.50
2023-03-07T05:41:24.611Z,23.90
2023-03-07T05:43:51.505Z,23.58
2023-03-07T05:46:18.931Z,26.05
2023-03-07T05:48:46.052Z,24.13
2023-03-07T05:51:13.611Z,26.00
2023-03-07T05:53:41.474Z,25.50
2023-03-07T05:56:09.245Z,25.40
2023-03-07T05:58:37.971Z,25.63
2023-03-07T06:01:05.878Z,26.73
2023-03-07T06:03:33.626Z,27.52
2023-03-07T06:06:01.026Z,26.08
2023-03-07T06:08:28.341Z,26.83
2023-03-07T06:10:55.514Z,24.83
2023-03-07T06:13:25.275Z,27.00
2023-03-07T06:15:54.140Z,26.95
2023-03-07T06:18:24.182Z,27.15
2023-03-07T06:20:59.747Z,24.10
2023-03-07T06:23:31.699Z,22.75
2023-03-07T06:26:00.908Z,24.88
2023-03-07T06:28:28.547Z,23.20
2023-03-07T06:30:56.117Z,24.27
2023-03-07T06:33:23.819Z,24.98
2023-03-07T06:35:54.371Z,25.17
2023-03-07T06:38:21.399Z,25.02
2023-03-07T06:40:56.546Z,23.42
2023-03-07T06:43:24.020Z,22.88
2023-03-07T06:45:51.454Z,25.85
2023-03-07T06:48:19.090Z,24.30
2023-03-07T06:50:46.989Z,24.13
2023-03-07T06:53:14.253Z,23.35
2023-03-07T06:55:41.594Z,25.38
2023-03-07T06:58:11.692Z,26.00
2023-03-07T07:00:39.134Z,25.42
2023-03-07T07:03:06.473Z,24.70
2023-03-07T07:05:34.073Z,24.75
2023-03-07T07:08:01.067Z,25.40
2023-03-07T07:10:29.805Z,24.33
2023-03-07T07:12:58.062Z,30.25
2023-03-07T07:15:26.870Z,23.83
2023-03-07T07:17:55.297Z,24.83
2023-03-07T07:20:24.269Z,25.55
2023-03-07T07:22:51.386Z,24.48
2023-03-07T07:25:20.088Z,25.00
2023-03-07T07:27:47.744Z,25.02
2023-03-07T07:30:15.230Z,23.85
2023-03-07T07:32:42.425Z,23.98
2023-03-07T07:35:10.226Z,22.23
2023-03-07T07:37:37.598Z,20.33
2023-03-07T07:40:05.440Z,20.67
2023-03-07T07:42:32.521Z,20.67
2023-03-07T07:45:11.569Z,20.58
2023-03-07T07:47:39.030Z,20.60
2023-03-07T07:50:06.774Z,19.60
2023-03-07T07:52:35.282Z,20.00
2023-03-07T07:55:02.609Z,20.23
2023-03-07T07:57:29.877Z,20.17
2023-03-07T07:59:58.959Z,19.08
2023-03-07T08:02:25.980Z,20.17
2023-03-07T08:04:53.305Z,19.45
2023-03-07T08:07:20.698Z,21.30
2023-03-07T08:09:48.053Z,19.73
2023-03-07T08:12:15.396Z,20.70
2023-03-07T08:14:42.786Z,18.95
2023-03-07T08:17:10.100Z,17.90
2023-03-07T08:19:37.306Z,16.77
2023-03-07T08:22:04.507Z,15.60
2023-03-07T08:24:40.696Z,15.55
2023-03-07T08:27:08.759Z,14.60
2023-03-07T08:29:35.956Z,13.55
2023-03-07T08:32:03.864Z,13.20
2023-03-07T08:34:33.697Z,13.85
2023-03-07T08:37:00.744Z,11.95
2023-03-07T08:39:27.992Z,12.52
2023-03-07T08:41:56.905Z,12.80
2023-03-07T08:44:24.342Z,11.98
2023-03-07T08:46:51.585Z,13.00
2023-03-07T08:49:19.142Z,13.57
2023-03-07T08:51:50.464Z,13.30
2023-03-07T08:54:18.293Z,16.23
2023-03-07T08:56:45.270Z,17.13
2023-03-07T08:59:12.809Z,16.85
2023-03-07T09:01:41.153Z,15.15
2023-03-07T09:04:09.656Z,15.35
2023-03-07T09:06:36.848Z,15.13
2023-03-07T09:09:06.008Z,15.90
2023-03-07T09:11:33.267Z,15.27
2023-03-07T09:14:00.708Z,14.95
2023-03-07T09:16:28.133Z,17.10
2023-03-07T09:18:55.320Z,17.27
2023-03-07T09:21:22.398Z,16.95
2023-03-07T09:23:49.743Z,16.50
2023-03-07T09:26:16.876Z,16.17
2023-03-07T09:28:44.362Z,16.17
2023-03-07T09:31:13.960Z,15.82
2023-03-07T09:33:41.801Z,17.52
2023-03-07T09:36:10.956Z,16.33
2023-03-07T09:38:39.006Z,16.85
2023-03-07T09:41:27.675Z,15.52
2023-03-07T09:44:24.082Z,16.38
2023-03-07T09:47:34.764Z,16.45
2023-03-07T09:50:10.066Z,15.45
2023-03-07T09:52:39.700Z,17.10
2023-03-07T09:55:19.274Z,17.65
2023-03-07T09:58:05.184Z,16.40
2023-03-07T10:00:38.380Z,18.48
2023-03-07T10:03:45.532Z,16.98
2023-03-07T10:06:30.672Z,17.40
2023-03-07T10:08:59.853Z,17.17
2023-03-07T10:11:46.346Z,18.50
2023-03-07T10:14:41.482Z,18.38
2023-03-07T10:17:47.135Z,17.52
2023-03-07T10:20:35.761Z,18.08
2023-03-07T10:23:26.530Z,17.60
2023-03-07T10:26:02.225Z,18.10
2023-03-07T10:28:32.812Z,19.67
2023-03-07T10:31:13.893Z,20.40
2023-03-07T10:33:45.187Z,17.88
2023-03-07T10:36:35.571Z,19.38
2023-03-07T10:39:24.795Z,21.48
2023-03-07T10:41:52.867Z,18.92
2023-03-07T10:44:21.956Z,21.60
2023-03-07T10:46:56.651Z,20.98
2023-03-07T10:49:28.192Z,19.85
2023-03-07T10:52:12.984Z,18.73
2023-03-07T10:54:40.632Z,21.23
2023-03-07T10:57:12.769Z,20.75
2023-03-07T10:59:43.759Z,21.42
2023-03-07T11:02:28.760Z,21.33
2023-03-07T11:04:56.907Z,20.27
2023-03-07T11:07:28.726Z,20.65
2023-03-07T11:09:58.339Z,20.67
2023-03-07T11:12:29.245Z,22.70
2023-03-07T11:15:08.860Z,22.85
2023-03-07T11:17:47.833Z,22.98
2023-03-07T11:20:20.402Z,21.25
2023-03-07T11:22:47.990Z,21.38
2023-03-07T11:25:23.005Z,20.33
2023-03-07T11:27:52.669Z,20.48
2023-03-07T11:30:20.105Z,22.20
2023-03-07T11:32:53.849Z,22.70
2023-03-07T11:35:32.675Z,23.05
2023-03-07T11:38:19.513Z,21.58
2023-03-07T11:40:53.921Z,23.00
2023-03-07T11:43:27.634Z,21.88
2023-03-07T11:46:16.254Z,22.70
2023-03-07T11:48:55.723Z,20.85
2023-03-07T11:51:32.263Z,22.25
2023-03-07T11:54:28.805Z,21.25
2023-03-07T11:57:06.289Z,21.48
2023-03-07T12:00:00.838Z,20.35
2023-03-07T12:03:03.866Z,21.65
2023-03-07T12:05:57.880Z,19.77
2023-03-07T12:08:40.262Z,17.77
2023-03-07T12:11:24.839Z,17.98
2023-03-07T12:14:26.177Z,17.42
2023-03-07T12:17:18.281Z,18.20
2023-03-07T12:19:57.666Z,16.63
2023-03-07T12:22:56.902Z,16.63
2023-03-07T12:25:40.157Z,17.92
2023-03-07T12:28:28.172Z,18.17
2023-03-07T12:31:17.770Z,17.67
2023-03-07T12:34:06.413Z,17.00
2023-03-07T12:36:44.709Z,17.05
2023-03-07T12:39:30.100Z,17.85
2023-03-07T12:41:57.620Z,16.52
2023-03-07T12:44:41.106Z,17.17
2023-03-07T12:47:35.698Z,16.80
2023-03-07T12:50:15.380Z,16.77
2023-03-07T12:52:56.902Z,16.65
2023-03-07T12:55:44.044Z,16.65
2023-03-07T12:58:49.310Z,16.38
2023-03-07T13:01:23.560Z,15.82
2023-03-07T13:03:53.871Z,15.93
2023-03-07T13:06:22.804Z,16.40
2023-03-07T13:08:53.420Z,15.35
2023-03-07T13:11:26.411Z,14.02
2023-03-07T13:13:57.182Z,14.68
2023-03-07T13:16:38.614Z,16.35
2023-03-07T13:19:30.962Z,15.93
2023-03-07T13:21:58.510Z,16.20
2023-03-07T13:24:38.897Z,14.07
2023-03-07T13:27:21.213Z,14.98
2023-03-07T13:30:10.689Z,14.95
2023-03-07T13:32:54.243Z,14.55
2023-03-07T13:35:24.621Z,15.20
2023-03-07T13:37:54.604Z,16.20
2023-03-07T13:40:27.588Z,15.23
2023-03-07T13:42:55.348Z,14.95
2023-03-07T13:45:54.477Z,15.18
2023-03-07T13:48:28.241Z,16.20
2023-03-07T13:50:56.082Z,14.32
2023-03-07T13:53:34.369Z,14.38
2023-03-07T13:56:17.322Z,13.93
2023-03-07T13:58:52.483Z,15.57
2023-03-07T14:01:23.404Z,14.70
2023-03-07T14:04:05.009Z,14.88
2023-03-07T14:06:39.311Z,14.02
2023-03-07T14:09:11.855Z,13.75
2023-03-07T14:12:16.987Z,13.85
2023-03-07T14:15:02.878Z,13.68
2023-03-07T14:17:42.679Z,13.95
2023-03-07T14:20:32.303Z,14.38
2023-03-07T14:23:50.237Z,13.07
2023-03-07T14:26:21.649Z,13.27
2023-03-07T14:29:01.633Z,12.00
2023-03-07T14:31:39.002Z,12.85
2023-03-07T14:34:21.609Z,12.00
2023-03-07T14:37:10.260Z,11.32
2023-03-07T14:39:56.986Z,11.15
2023-03-07T14:42:48.603Z,11.02
2023-03-07T14:45:35.901Z,12.18
2023-03-07T14:48:16.612Z,11.60
2023-03-07T14:50:45.014Z,10.93
2023-03-07T14:53:20.614Z,11.30
2023-03-07T14:55:51.455Z,11.00
2023-03-07T14:58:35.061Z,10.98
2023-03-07T15:01:12.170Z,10.85
2023-03-07T15:03:49.980Z,11.77
2023-03-07T15:06:21.861Z,11.27
2023-03-07T15:11:35.557Z,10.88
2023-03-07T15:14:08.062Z,11.20
2023-03-07T15:16:55.746Z,9.45
2023-03-07T15:19:38.525Z,11.20
2023-03-07T15:22:19.249Z,11.20
2023-03-07T15:24:49.783Z,12.02
2023-03-07T15:27:22.712Z,12.02
2023-03-07T15:29:50.455Z,12.27
2023-03-07T15:32:37.773Z,10.93
2023-03-07T15:35:08.357Z,11.52
2023-03-07T15:37:51.402Z,11.50
2023-03-07T15:40:22.430Z,11.13
2023-03-07T15:43:11.443Z,11.05
2023-03-07T15:45:40.868Z,10.20
2023-03-07T15:48:23.288Z,10.82
2023-03-07T15:50:56.712Z,10.95
2023-03-07T15:53:33.750Z,9.73
2023-03-07T15:56:05.151Z,10.52
2023-03-07T16:01:05.579Z,9.95
2023-03-07T16:03:33.805Z,10.23
2023-03-07T16:06:02.406Z,10.38
2023-03-07T16:08:30.014Z,10.55
2023-03-07T16:11:03.745Z,10.07
2023-03-07T16:13:41.681Z,10.65
2023-03-07T16:16:13.149Z,11.25
2023-03-07T16:21:14.618Z,10.40
2023-03-07T16:23:43.261Z,11.32
2023-03-07T16:26:29.292Z,11.75
2023-03-07T16:29:00.094Z,10.80
2023-03-07T16:31:27.600Z,11.18
2023-03-07T16:33:56.029Z,11.95
2023-03-07T16:36:23.122Z,11.88
2023-03-07T16:38:50.975Z,10.95
2023-03-07T16:41:20.764Z,12.35
2023-03-07T16:43:57.360Z,10.80
2023-03-07T16:46:25.873Z,12.55
2023-03-07T16:48:53.970Z,11.50
2023-03-07T16:51:23.380Z,11.93
2023-03-07T16:53:52.150Z,10.32
2023-03-07T16:56:25.167Z,11.20
2023-03-07T16:58:54.091Z,12.13
2023-03-07T17:01:21.122Z,11.38
2023-03-07T17:03:48.700Z,11.75
2023-03-07T17:06:16.834Z,12.27
2023-03-07T17:08:45.275Z,11.73
2023-03-07T17:11:25.131Z,12.57
2023-03-07T17:13:55.636Z,12.90
2023-03-07T17:16:24.878Z,12.80
2023-03-07T17:18:52.035Z,12.65
2023-03-07T17:21:21.782Z,12.95
2023-03-07T17:23:49.913Z,13.48
2023-03-07T17:26:35.528Z,12.70
2023-03-07T17:29:07.510Z,13.52
2023-03-07T17:31:34.966Z,12.23
2023-03-07T17:34:02.123Z,12.65
2023-03-07T17:36:31.588Z,14.15
2023-03-07T17:38:59.258Z,14.45
2023-03-07T17:41:26.102Z,14.43
2023-03-07T17:43:53.782Z,17.95
2023-03-07T17:46:20.799Z,15.07
2023-03-07T17:48:48.354Z,15.07
2023-03-07T17:51:15.407Z,14.75
2023-03-07T17:53:42.849Z,14.35
2023-03-07T17:56:13.190Z,13.15
2023-03-07T17:58:40.968Z,14.50
2023-03-07T18:01:08.863Z,15.55
2023-03-07T18:03:37.166Z,14.18
2023-03-07T18:06:05.655Z,14.23
2023-03-07T18:08:33.570Z,14.35
2023-03-07T18:11:04.222Z,15.10
2023-03-07T18:13:32.397Z,14.15
2023-03-07T18:15:59.845Z,13.90
2023-03-07T18:18:29.928Z,13.50
2023-03-07T18:21:01.958Z,13.57
2023-03-07T18:23:29.163Z,13.52
2023-03-07T18:25:57.807Z,13.32
2023-03-07T18:28:26.430Z,13.63
2023-03-07T18:31:17.815Z,13.15
2023-03-07T18:33:47.812Z,13.93
2023-03-07T18:36:15.683Z,13.18
2023-03-07T18:38:43.323Z,13.00
2023-03-07T18:41:13.888Z,14.55
2023-03-07T18:43:42.157Z,13.43
2023-03-07T18:46:15.899Z,13.45
2023-03-07T18:48:45.163Z,13.50
2023-03-07T18:51:15.696Z,12.85
2023-03-07T18:53:43.480Z,13.37
2023-03-07T18:56:17.493Z,12.48
2023-03-07T18:58:45.492Z,13.32
2023-03-07T19:01:21.197Z,14.15
2023-03-07T19:03:51.118Z,12.15
2023-03-07T19:06:21.248Z,11.23
2023-03-07T19:08:48.830Z,10.70
2023-03-07T19:11:16.259Z,11.57
2023-03-07T19:13:44.364Z,10.77
2023-03-07T19:16:20.162Z,10.93
2023-03-07T19:18:47.651Z,10.27
2023-03-07T19:21:18.125Z,10.45
2023-03-07T19:23:46.253Z,10.32
2023-03-07T19:26:16.756Z,9.85
2023-03-07T19:28:46.679Z,10.45
2023-03-07T19:31:27.943Z,10.63
2023-03-07T19:33:55.885Z,9.73
2023-03-07T19:36:27.179Z,10.43
2023-03-07T19:38:58.972Z,9.98
2023-03-07T19:41:29.101Z,9.75
2023-03-07T19:43:58.317Z,10.48
2023-03-07T19:46:25.336Z,9.75
2023-03-07T19:48:53.599Z,9.95
2023-03-07T19:51:23.100Z,9.73
2023-03-07T19:53:51.093Z,9.15
2023-03-07T19:56:19.696Z,10.13
2023-03-07T19:58:47.189Z,10.13
2023-03-07T20:01:17.845Z,10.27
2023-03-07T20:03:46.122Z,10.00
2023-03-07T20:06:20.031Z,7.95
2023-03-07T20:08:49.295Z,9.63
2023-03-07T20:11:24.381Z,10.10
2023-03-07T20:13:54.630Z,10.18
2023-03-07T20:16:22.117Z,9.68
2023-03-07T20:18:52.102Z,8.93
2023-03-07T20:21:20.539Z,9.60
2023-03-07T20:23:48.479Z,8.70
2023-03-07T20:26:22.608Z,8.88
2023-03-07T20:28:52.298Z,8.18
2023-03-07T20:31:22.066Z,8.70
2023-03-07T20:33:50.199Z,8.75
2023-03-07T20:36:28.987Z,8.68
2023-03-07T20:38:59.016Z,8.88
2023-03-07T20:41:31.834Z,8.55
2023-03-07T20:44:05.323Z,9.07
2023-03-07T20:46:33.817Z,8.88
2023-03-07T20:49:02.129Z,8.85
2023-03-07T20:51:35.510Z,8.75
2023-03-07T20:54:08.764Z,8.23
2023-03-07T20:56:38.066Z,9.38
2023-03-07T20:59:07.149Z,8.50
2023-03-07T21:01:35.280Z,10.63
2023-03-07T21:04:06.449Z,10.75
2023-03-07T21:06:35.229Z,9.98
2023-03-07T21:09:06.476Z,8.80
2023-03-07T21:11:35.814Z,9.13
2023-03-07T21:14:04.137Z,9.07
2023-03-07T21:16:31.892Z,8.63
2023-03-07T21:19:01.694Z,9.15
2023-03-07T21:21:33.132Z,9.07
2023-03-07T21:26:30.045Z,9.07
2023-03-07T21:28:58.660Z,8.60
2023-03-07T21:31:31.651Z,9.18
2023-03-07T21:34:02.126Z,9.07
2023-03-07T21:36:31.475Z,8.20
2023-03-07T21:38:59.129Z,8.88
2023-03-07T21:41:27.218Z,7.05
2023-03-07T21:43:55.660Z,8.23
2023-03-07T21:46:24.047Z,8.75
2023-03-07T21:48:51.610Z,7.75
2023-03-07T21:51:19.443Z,8.77
2023-03-07T21:53:46.750Z,8.32
2023-03-07T21:56:17.172Z,8.20
2023-03-07T21:58:48.379Z,7.30
2023-03-07T22:01:21.785Z,8.05
2023-03-07T22:03:52.236Z,8.60
2023-03-07T22:06:19.776Z,8.38
2023-03-07T22:08:47.058Z,8.15
2023-03-07T22:11:14.259Z,8.52
2023-03-07T22:13:42.107Z,8.57
2023-03-07T22:16:14.513Z,7.18
2023-03-07T22:18:41.988Z,8.25
2023-03-07T22:21:14.376Z,8.45
2023-03-07T22:23:42.196Z,8.85
2023-03-07T22:26:11.476Z,8.45
2023-03-07T22:28:40.792Z,6.22
2023-03-07T22:31:11.318Z,7.10
2023-03-07T22:33:39.557Z,6.25
2023-03-07T22:36:07.893Z,5.65
2023-03-07T22:38:35.577Z,5.15
2023-03-07T22:41:04.924Z,4.72
2023-03-07T22:43:34.187Z,5.53
2023-03-07T22:46:01.832Z,6.05
2023-03-07T22:48:29.420Z,5.63
2023-03-07T22:50:56.649Z,4.68
2023-03-07T22:53:26.753Z,3.88
2023-03-07T22:55:54.831Z,3.00
2023-03-07T22:58:22.226Z,2.97
2023-03-07T23:00:49.571Z,2.58
2023-03-07T23:03:16.728Z,2.30
2023-03-07T23:05:46.820Z,1.90
2023-03-07T23:08:14.031Z,1.83
2023-03-07T23:10:41.548Z,1.52
2023-03-07T23:13:08.713Z,1.75
2023-03-07T23:15:40.307Z,1.88
2023-03-07T23:18:08.462Z,1.80
2023-03-07T23:20:37.570Z,2.00
2023-03-07T23:23:05.202Z,1.75
2023-03-07T23:25:33.285Z,2.10
2023-03-07T23:28:00.708Z,2.00
2023-03-07T23:30:27.649Z,2.58
2023-03-07T23:32:55.769Z,2.28
2023-03-07T23:35:23.823Z,2.40
2023-03-07T23:37:51.290Z,2.15
2023-03-07T23:40:18.520Z,2.50
2023-03-07T23:42:45.693Z,2.25
2023-03-07T23:45:12.993Z,1.98
2023-03-07T23:47:40.633Z,2.30
2023-03-07T23:50:08.748Z,2.25
2023-03-07T23:52:36.592Z,2.60
2023-03-07T23:55:03.991Z,2.30
2023-03-07T23:57:31.374Z,2.38
2023-03-07T23:59:58.209Z,1.77
